createdAt,value
2018-04-28T00:00:08.439Z,19.53
2018-04-28T00:02:36.824Z,16.00
2018-04-28T00:05:05.205Z,21.77
2018-04-28T00:07:33.133Z,22.77
2018-04-28T00:10:01.274Z,21.87
2018-04-28T00:12:29.646Z,20.50
2018-04-28T00:14:57.787Z,23.73
2018-04-28T00:17:25.687Z,27.03
2018-04-28T00:19:56.438Z,26.83
2018-04-28T00:22:27.156Z,28.00
2018-04-28T00:24:59.480Z,35.07
2018-04-28T00:27:34.748Z,37.70
2018-04-28T00:30:12.190Z,32.93
2018-04-28T00:32:40.330Z,30.27
2018-04-28T00:35:09.175Z,37.80
2018-04-28T00:37:54.075Z,32.47
2018-04-28T00:40:45.057Z,30.73
2018-04-28T00:43:19.558Z,34.57
2018-04-28T00:48:47.521Z,36.47
2018-04-28T00:51:25.325Z,31.50
2018-04-28T00:54:17.783Z,35.37
2018-04-28T00:56:52.173Z,34.43
2018-04-28T00:59:23.416Z,39.60
2018-04-28T01:01:53.056Z,37.00
2018-04-28T01:04:26.913Z,37.13
2018-04-28T01:06:55.334Z,33.13
2018-04-28T01:09:23.946Z,36.17
2018-04-28T01:11:51.850Z,31.43
2018-04-28T01:14:20.419Z,37.13
2018-04-28T01:16:52.819Z,34.73
2018-04-28T01:19:26.425Z,37.33
2018-04-28T01:21:54.368Z,31.67
2018-04-28T01:24:33.097Z,37.20
2018-04-28T01:27:07.543Z,34.20
2018-04-28T01:29:36.235Z,34.67
2018-04-28T01:32:12.750Z,33.50
2018-04-28T01:38:00.776Z,38.93
2018-04-28T01:40:28.750Z,35.13
2018-04-28T01:43:03.269Z,32.70
2018-04-28T01:45:42.875Z,34.17
2018-04-28T01:51:11.810Z,34.10
2018-04-28T01:57:09.916Z,39.27
2018-04-28T02:03:06.623Z,36.77
2018-04-28T02:05:41.222Z,34.00
2018-04-28T02:08:24.845Z,37.63
2018-04-28T02:10:58.375Z,39.73
2018-04-28T02:13:34.959Z,32.93
2018-04-28T02:16:02.863Z,36.50
2018-04-28T02:18:35.478Z,35.07
2018-04-28T02:24:38.380Z,34.13
2018-04-28T02:27:15.504Z,36.70
2018-04-28T02:32:57.439Z,34.20
2018-04-28T02:35:32.935Z,37.27
2018-04-28T02:38:04.842Z,32.27
2018-04-28T02:40:40.916Z,34.63
2018-04-28T02:43:09.611Z,35.70
2018-04-28T02:48:58.629Z,29.90
2018-04-28T02:51:35.085Z,38.20
2018-04-28T02:57:17.760Z,32.03
2018-04-28T02:59:47.493Z,32.50
2018-04-28T03:05:25.988Z,34.90
2018-04-28T03:08:02.547Z,29.67
2018-04-28T03:13:33.550Z,31.67
2018-04-28T03:16:02.102Z,34.93
2018-04-28T03:18:31.733Z,32.13
2018-04-28T03:20:59.679Z,28.80
2018-04-28T03:23:31.245Z,30.77
2018-04-28T03:25:59.994Z,28.80
2018-04-28T03:28:30.730Z,30.87
2018-04-28T03:30:59.398Z,29.23
2018-04-28T03:36:28.228Z,27.87
2018-04-28T03:39:02.074Z,29.80
2018-04-28T03:41:31.535Z,25.93
2018-04-28T03:47:38.408Z,25.87
2018-04-28T03:50:38.796Z,29.30
2018-04-28T03:53:07.479Z,25.20
2018-04-28T03:55:37.036Z,27.17
2018-04-28T03:58:16.681Z,25.03
2018-04-28T04:00:56.296Z,32.47
2018-04-28T04:03:24.898Z,26.13
2018-04-28T04:08:57.707Z,25.33
2018-04-28T04:11:37.351Z,32.90
2018-04-28T04:17:23.856Z,26.97
2018-04-28T04:23:15.179Z,24.47
2018-04-28T04:28:47.803Z,22.10
2018-04-28T04:31:26.308Z,23.20
2018-04-28T04:34:04.071Z,25.93
2018-04-28T04:36:35.649Z,19.83
2018-04-28T04:39:10.073Z,20.23
2018-04-28T04:44:50.059Z,20.47
2018-04-28T04:50:29.210Z,17.80
2018-04-28T04:53:14.158Z,16.93
2018-04-28T04:55:48.831Z,17.83
2018-04-28T04:58:23.269Z,18.97
2018-04-28T05:04:17.211Z,20.53
2018-04-28T05:07:07.461Z,22.47
2018-04-28T05:12:36.184Z,20.50
2018-04-28T05:15:10.831Z,19.70
2018-04-28T05:17:40.304Z,20.47
2018-04-28T05:20:19.929Z,21.57
2018-04-28T05:23:10.511Z,19.23
2018-04-28T05:28:58.930Z,18.23
2018-04-28T05:34:36.038Z,23.50
2018-04-28T05:37:15.522Z,21.37
2018-04-28T05:46:23.509Z,15.83
2018-04-28T05:52:07.959Z,16.43
2018-04-28T05:54:50.717Z,13.03
2018-04-28T05:57:31.342Z,20.70
2018-04-28T06:00:13.158Z,14.67
2018-04-28T06:02:50.865Z,15.43
2018-04-28T06:05:26.623Z,13.17
2018-04-28T06:14:49.989Z,15.47
2018-04-28T06:17:23.359Z,17.13
2018-04-28T06:20:05.890Z,15.83
2018-04-28T06:22:34.407Z,15.30
2018-04-28T06:25:02.792Z,19.30
2018-04-28T06:27:31.290Z,17.10
2018-04-28T06:29:59.985Z,15.70
2018-04-28T06:32:28.437Z,14.27
2018-04-28T06:34:56.817Z,16.23
2018-04-28T06:37:25.190Z,14.37
2018-04-28T06:39:53.336Z,14.73
2018-04-28T06:42:21.748Z,15.73
2018-04-28T06:44:50.167Z,17.80
2018-04-28T06:47:18.553Z,16.00
2018-04-28T06:49:47.052Z,16.60
2018-04-28T06:52:15.440Z,16.90
2018-04-28T06:54:43.819Z,17.63
2018-04-28T06:57:12.195Z,19.30
2018-04-28T06:59:40.576Z,18.13
2018-04-28T07:02:09.522Z,19.40
2018-04-28T07:04:37.926Z,18.87
2018-04-28T07:07:06.002Z,16.23
2018-04-28T07:09:34.397Z,15.03
2018-04-28T07:12:02.779Z,18.30
2018-04-28T07:14:31.152Z,14.37
2018-04-28T07:16:59.358Z,18.93
2018-04-28T07:19:27.255Z,15.80
2018-04-28T07:21:55.646Z,20.07
2018-04-28T07:24:24.032Z,16.13
2018-04-28T07:26:54.428Z,20.73
2018-04-28T07:29:22.850Z,22.67
2018-04-28T07:31:51.240Z,28.70
2018-04-28T07:34:19.721Z,15.23
2018-04-28T07:36:48.103Z,21.27
2018-04-28T07:39:16.479Z,18.47
2018-04-28T07:41:44.954Z,21.30
2018-04-28T07:44:14.707Z,19.27
2018-04-28T07:46:43.107Z,19.07
2018-04-28T07:49:11.482Z,15.83
2018-04-28T07:51:39.874Z,19.53
2018-04-28T07:54:08.389Z,23.43
2018-04-28T07:56:36.991Z,23.57
2018-04-28T07:59:05.370Z,22.43
2018-04-28T08:01:33.770Z,26.70
2018-04-28T08:04:02.181Z,29.53
2018-04-28T08:06:30.566Z,23.90
2018-04-28T08:08:58.703Z,25.87
2018-04-28T08:11:27.119Z,19.53
2018-04-28T08:13:55.498Z,19.67
2018-04-28T08:16:23.915Z,18.43
2018-04-28T08:18:52.295Z,25.90
2018-04-28T08:21:20.671Z,19.07
2018-04-28T08:23:49.085Z,24.83
2018-04-28T08:26:17.006Z,21.43
2018-04-28T08:28:45.492Z,22.90
2018-04-28T08:31:16.692Z,19.87
2018-04-28T08:33:45.678Z,19.93
2018-04-28T08:36:13.821Z,22.03
2018-04-28T08:38:42.452Z,20.77
2018-04-28T08:41:18.062Z,19.77
2018-04-28T08:43:46.479Z,28.50
2018-04-28T08:46:14.855Z,23.33
2018-04-28T08:48:43.026Z,19.20
2018-04-28T08:51:11.408Z,27.43
2018-04-28T08:53:39.794Z,25.53
2018-04-28T08:56:08.189Z,24.70
2018-04-28T08:58:36.575Z,25.97
2018-04-28T09:01:04.476Z,27.93
2018-04-28T09:03:32.909Z,23.27
2018-04-28T09:06:01.279Z,27.80
2018-04-28T09:08:29.827Z,23.97
2018-04-28T09:10:58.326Z,23.90
2018-04-28T09:13:26.717Z,30.93
2018-04-28T09:15:55.098Z,22.40
2018-04-28T09:18:23.479Z,21.03
2018-04-28T09:20:51.904Z,26.20
2018-04-28T09:23:20.274Z,28.87
2018-04-28T09:25:48.699Z,29.97
2018-04-28T09:28:17.071Z,24.37
2018-04-28T09:30:45.496Z,28.43
2018-04-28T09:33:13.679Z,23.50
2018-04-28T09:35:42.048Z,24.20
2018-04-28T09:38:10.428Z,19.10
2018-04-28T09:40:38.815Z,22.83
2018-04-28T09:43:07.191Z,21.37
2018-04-28T09:45:35.613Z,21.33
2018-04-28T09:48:03.996Z,22.70
2018-04-28T09:50:32.427Z,22.20
2018-04-28T09:53:00.853Z,30.00
2018-04-28T09:55:29.232Z,28.77
2018-04-28T09:58:05.912Z,25.07
2018-04-28T10:03:45.546Z,22.55
2018-04-28T10:06:13.947Z,21.93
2018-04-28T10:08:42.407Z,20.87
2018-04-28T10:11:10.801Z,21.30
2018-04-28T10:13:39.169Z,27.93
2018-04-28T10:16:07.556Z,20.13
2018-04-28T10:18:35.931Z,27.47
2018-04-28T10:21:04.680Z,22.80
2018-04-28T10:23:33.079Z,20.37
2018-04-28T10:26:01.518Z,23.63
2018-04-28T10:28:30.012Z,21.50
2018-04-28T10:30:58.550Z,23.77
2018-04-28T10:33:27.053Z,23.23
2018-04-28T10:35:55.897Z,21.57
2018-04-28T10:38:24.310Z,21.60
2018-04-28T10:40:52.696Z,27.87
2018-04-28T10:43:21.067Z,22.60
2018-04-28T10:45:49.470Z,24.80
2018-04-28T10:48:17.866Z,28.13
2018-04-28T10:50:47.142Z,18.90
2018-04-28T10:53:15.559Z,20.47
2018-04-28T10:55:43.940Z,19.90
2018-04-28T10:58:12.366Z,20.83
2018-04-28T11:00:40.915Z,18.60
2018-04-28T11:03:09.282Z,16.67
2018-04-28T11:05:37.661Z,16.20
2018-04-28T11:08:06.271Z,17.33
2018-04-28T11:10:34.682Z,14.00
2018-04-28T11:13:03.069Z,15.33
2018-04-28T11:15:31.508Z,16.90
2018-04-28T11:17:59.923Z,15.20
2018-04-28T11:20:28.314Z,18.70
2018-04-28T11:22:56.731Z,24.30
2018-04-28T11:25:25.246Z,24.23
2018-04-28T11:27:53.414Z,21.77
2018-04-28T11:30:21.825Z,20.67
2018-04-28T11:32:50.261Z,30.50
2018-04-28T11:35:18.813Z,19.67
2018-04-28T11:37:47.253Z,24.90
2018-04-28T11:40:15.465Z,17.03
2018-04-28T11:42:44.556Z,20.77
2018-04-28T11:45:12.947Z,23.63
2018-04-28T11:47:54.803Z,21.83
2018-04-28T11:50:23.225Z,19.77
2018-04-28T11:52:51.631Z,22.03
2018-04-28T11:55:20.016Z,20.10
2018-04-28T11:57:48.391Z,18.07
2018-04-28T12:00:16.770Z,16.37
2018-04-28T12:02:45.198Z,21.50
2018-04-28T12:05:13.672Z,19.70
2018-04-28T12:07:42.168Z,16.10
2018-04-28T12:10:10.564Z,17.67
2018-04-28T12:12:39.123Z,18.43
2018-04-28T12:15:07.630Z,21.57
2018-04-28T12:17:36.007Z,20.47
2018-04-28T12:20:04.139Z,22.03
2018-04-28T12:22:32.553Z,19.53
2018-04-28T12:25:00.967Z,19.90
2018-04-28T12:27:29.363Z,18.80
2018-04-28T12:29:57.752Z,18.03
2018-04-28T12:32:26.298Z,15.27
2018-04-28T12:34:54.699Z,19.20
2018-04-28T12:37:25.671Z,17.00
2018-04-28T12:39:54.088Z,15.33
2018-04-28T12:42:22.463Z,15.97
2018-04-28T12:44:51.708Z,15.97
2018-04-28T12:47:20.099Z,20.40
2018-04-28T12:49:48.471Z,15.73
2018-04-28T12:52:16.875Z,12.80
2018-04-28T12:54:45.270Z,14.13
2018-04-28T12:57:13.650Z,14.60
2018-04-28T12:59:42.083Z,16.93
2018-04-28T13:02:10.528Z,14.43
2018-04-28T13:04:38.955Z,16.63
2018-04-28T13:07:07.488Z,17.53
2018-04-28T13:09:35.634Z,16.97
2018-04-28T13:12:04.019Z,16.03
2018-04-28T13:14:33.131Z,15.43
2018-04-28T13:17:01.507Z,13.77
2018-04-28T13:19:29.939Z,14.50
2018-04-28T13:21:58.336Z,15.17
2018-04-28T13:24:26.729Z,16.63
2018-04-28T13:26:55.177Z,14.10
2018-04-28T13:29:23.705Z,11.13
2018-04-28T13:31:52.073Z,12.43
2018-04-28T13:34:20.453Z,18.03
2018-04-28T13:36:48.860Z,14.83
2018-04-28T13:39:17.330Z,14.17
2018-04-28T13:41:45.913Z,14.07
2018-04-28T13:44:14.290Z,12.20
2018-04-28T13:46:42.666Z,10.43
2018-04-28T13:49:11.045Z,14.17
2018-04-28T13:51:39.479Z,13.03
2018-04-28T13:54:07.866Z,14.53
2018-04-28T13:56:36.281Z,15.13
2018-04-28T13:59:04.854Z,17.40
2018-04-28T14:01:33.272Z,15.73
2018-04-28T14:04:01.663Z,13.87
2018-04-28T14:06:29.879Z,12.50
2018-04-28T14:08:58.049Z,16.53
2018-04-28T14:11:26.442Z,17.30
2018-04-28T14:13:54.809Z,13.27
2018-04-28T14:16:23.239Z,16.93
2018-04-28T14:18:51.667Z,25.13
2018-04-28T14:21:20.071Z,19.07
2018-04-28T14:23:48.221Z,11.47
2018-04-28T14:26:16.598Z,16.50
2018-04-28T14:28:45.036Z,14.30
2018-04-28T14:31:13.424Z,13.80
2018-04-28T14:33:41.802Z,17.30
2018-04-28T14:36:10.220Z,10.40
2018-04-28T14:38:38.642Z,18.57
2018-04-28T14:41:07.011Z,13.90
2018-04-28T14:43:35.923Z,16.67
2018-04-28T14:46:04.304Z,15.50
2018-04-28T14:48:32.882Z,13.00
2018-04-28T14:51:01.280Z,13.40
2018-04-28T14:53:29.669Z,15.53
2018-04-28T14:55:58.033Z,15.10
2018-04-28T14:58:26.410Z,14.20
2018-04-28T15:00:54.827Z,17.37
2018-04-28T15:03:23.373Z,14.63
2018-04-28T15:05:51.744Z,14.13
2018-04-28T15:08:20.124Z,13.77
2018-04-28T15:10:48.534Z,22.33
2018-04-28T15:13:16.963Z,40.47
2018-04-28T15:15:46.637Z,19.37
2018-04-28T15:18:15.015Z,35.13
2018-04-28T15:20:43.619Z,25.80
2018-04-28T15:23:11.994Z,36.73
2018-04-28T15:25:40.875Z,20.53
2018-04-28T15:28:09.288Z,21.23
2018-04-28T15:30:37.665Z,22.80
2018-04-28T15:33:06.033Z,25.80
2018-04-28T15:35:34.476Z,22.60
2018-04-28T15:38:02.615Z,26.40
2018-04-28T15:40:31.011Z,22.40
2018-04-28T15:42:59.485Z,20.97
2018-04-28T15:45:27.852Z,24.60
2018-04-28T15:47:56.276Z,27.47
2018-04-28T15:50:24.726Z,25.33
2018-04-28T15:52:53.174Z,21.43
2018-04-28T15:55:21.628Z,24.60
2018-04-28T15:57:54.478Z,21.97
2018-04-28T16:00:22.902Z,22.53
2018-04-28T16:02:51.327Z,24.23
2018-04-28T16:05:20.734Z,22.83
2018-04-28T16:07:49.111Z,24.67
2018-04-28T16:10:17.491Z,21.03
2018-04-28T16:12:45.866Z,17.40
2018-04-28T16:15:14.263Z,20.30
2018-04-28T16:17:46.876Z,21.70
2018-04-28T16:20:15.252Z,17.97
2018-04-28T16:22:43.392Z,26.93
2018-04-28T16:25:11.778Z,22.77
2018-04-28T16:27:40.145Z,17.97
2018-04-28T16:30:08.581Z,23.80
2018-04-28T16:32:36.958Z,23.00
2018-04-28T16:35:05.376Z,20.20
2018-04-28T16:37:36.067Z,19.03
2018-04-28T16:40:04.457Z,22.43
2018-04-28T16:42:32.862Z,21.80
2018-04-28T16:45:01.246Z,18.57
2018-04-28T16:47:29.684Z,20.70
2018-04-28T16:49:58.167Z,20.33
2018-04-28T16:52:26.560Z,23.13
2018-04-28T16:54:55.009Z,23.67
2018-04-28T16:57:23.398Z,19.13
2018-04-28T16:59:51.837Z,15.67
2018-04-28T17:02:20.224Z,18.60
2018-04-28T17:04:48.644Z,22.37
2018-04-28T17:07:17.026Z,19.83
2018-04-28T17:09:45.420Z,19.97
2018-04-28T17:12:14.333Z,18.13
2018-04-28T17:14:43.431Z,23.90
2018-04-28T17:17:11.900Z,17.03
2018-04-28T17:19:40.405Z,16.03
2018-04-28T17:22:10.229Z,18.30
2018-04-28T17:24:42.243Z,16.70
2018-04-28T17:27:10.999Z,18.17
2018-04-28T17:29:39.410Z,18.40
2018-04-28T17:32:08.626Z,15.03
2018-04-28T17:34:37.021Z,26.63
2018-04-28T17:37:05.486Z,20.13
2018-04-28T17:39:34.038Z,20.03
2018-04-28T17:42:02.484Z,14.50
2018-04-28T17:44:30.865Z,19.03
2018-04-28T17:46:59.420Z,19.37
2018-04-28T17:49:27.824Z,21.53
2018-04-28T17:51:56.259Z,19.47
2018-04-28T17:54:24.749Z,24.13
2018-04-28T17:56:53.122Z,20.77
2018-04-28T17:59:21.690Z,16.47
2018-04-28T18:01:50.232Z,17.67
2018-04-28T18:04:19.550Z,20.17
2018-04-28T18:06:47.931Z,24.70
2018-04-28T18:09:16.931Z,22.43
2018-04-28T18:11:45.358Z,21.97
2018-04-28T18:14:13.734Z,21.23
2018-04-28T18:16:42.123Z,21.83
2018-04-28T18:19:10.503Z,21.03
2018-04-28T18:21:38.881Z,19.17
2018-04-28T18:24:10.289Z,20.63
2018-04-28T18:26:39.751Z,23.80
2018-04-28T18:29:08.137Z,18.60
2018-04-28T18:31:36.523Z,18.53
2018-04-28T18:34:04.670Z,17.30
2018-04-28T18:36:33.076Z,20.53
2018-04-28T18:39:01.457Z,20.83
2018-04-28T18:41:29.844Z,20.57
2018-04-28T18:43:59.071Z,17.33
2018-04-28T18:46:27.543Z,25.67
2018-04-28T18:48:56.038Z,17.77
2018-04-28T18:51:24.462Z,20.33
2018-04-28T18:53:52.835Z,25.40
2018-04-28T18:56:21.249Z,26.03
2018-04-28T18:58:49.619Z,29.97
2018-04-28T19:01:17.998Z,18.67
2018-04-28T19:03:46.383Z,16.60
2018-04-28T19:06:14.788Z,17.40
2018-04-28T19:08:42.985Z,15.63
2018-04-28T19:11:11.140Z,19.03
2018-04-28T19:13:39.589Z,17.50
2018-04-28T19:16:07.971Z,14.43
2018-04-28T19:18:36.353Z,25.87
2018-04-28T19:21:04.723Z,18.17
2018-04-28T19:23:33.104Z,19.47
2018-04-28T19:26:01.504Z,15.30
2018-04-28T19:28:40.322Z,18.60
2018-04-28T19:31:09.206Z,18.80
2018-04-28T19:33:37.799Z,16.80
2018-04-28T19:36:06.248Z,21.00
2018-04-28T19:38:34.635Z,18.60
2018-04-28T19:41:02.778Z,18.13
2018-04-28T19:43:31.207Z,17.97
2018-04-28T19:45:59.611Z,17.67
2018-04-28T19:48:28.001Z,15.93
2018-04-28T19:50:56.158Z,19.87
2018-04-28T19:53:24.542Z,14.87
2018-04-28T19:55:52.709Z,21.80
2018-04-28T19:58:21.140Z,14.43
2018-04-28T20:00:49.517Z,15.70
2018-04-28T20:03:17.924Z,20.40
2018-04-28T20:05:46.330Z,18.33
2018-04-28T20:08:14.732Z,25.17
2018-04-28T20:10:43.107Z,19.57
2018-04-28T20:13:11.503Z,14.97
2018-04-28T20:15:39.899Z,15.27
2018-04-28T20:18:08.283Z,18.33
2018-04-28T20:20:36.659Z,21.57
2018-04-28T20:23:16.243Z,16.93
2018-04-28T20:25:44.616Z,18.67
2018-04-28T20:28:13.025Z,16.87
2018-04-28T20:30:41.663Z,20.50
2018-04-28T20:33:10.132Z,20.10
2018-04-28T20:35:38.615Z,21.57
2018-04-28T20:38:07.020Z,17.93
2018-04-28T20:40:35.493Z,22.13
2018-04-28T20:43:03.869Z,16.87
2018-04-28T20:45:32.306Z,23.63
2018-04-28T20:48:00.694Z,17.60
2018-04-28T20:50:29.089Z,20.53
2018-04-28T20:52:57.529Z,17.40
2018-04-28T20:55:25.915Z,18.53
2018-04-28T20:57:54.302Z,17.57
2018-04-28T21:00:22.720Z,18.57
2018-04-28T21:02:51.098Z,18.27
2018-04-28T21:05:19.529Z,21.50
2018-04-28T21:07:47.965Z,21.47
2018-04-28T21:10:17.293Z,19.10
2018-04-28T21:12:45.674Z,22.10
2018-04-28T21:15:14.091Z,20.80
2018-04-28T21:17:42.662Z,20.90
2018-04-28T21:20:11.061Z,20.50
2018-04-28T21:22:39.437Z,16.57
2018-04-28T21:25:07.805Z,21.67
2018-04-28T21:27:36.182Z,16.40
2018-04-28T21:30:05.805Z,22.10
2018-04-28T21:32:34.532Z,22.27
2018-04-28T21:35:02.909Z,20.50
2018-04-28T21:37:31.350Z,22.67
2018-04-28T21:39:59.728Z,21.83
2018-04-28T21:42:28.095Z,23.40
2018-04-28T21:44:56.481Z,17.17
2018-04-28T21:47:24.894Z,18.93
2018-04-28T21:49:53.275Z,16.13
2018-04-28T21:52:22.431Z,17.63
2018-04-28T21:54:50.853Z,17.57
2018-04-28T21:57:19.235Z,20.13
2018-04-28T21:59:47.620Z,21.27
2018-04-28T22:02:15.990Z,16.20
2018-04-28T22:04:44.424Z,17.67
2018-04-28T22:07:13.077Z,15.00
2018-04-28T22:09:41.839Z,18.17
2018-04-28T22:12:10.256Z,20.77
2018-04-28T22:14:38.631Z,18.97
2018-04-28T22:17:07.016Z,15.23
2018-04-28T22:19:35.386Z,25.33
2018-04-28T22:22:03.795Z,21.07
2018-04-28T22:24:32.168Z,15.93
2018-04-28T22:27:00.551Z,17.47
2018-04-28T22:29:28.925Z,15.30
2018-04-28T22:31:57.298Z,17.67
2018-04-28T22:34:25.716Z,16.43
2018-04-28T22:36:53.935Z,17.60
2018-04-28T22:39:22.311Z,17.70
2018-04-28T22:41:50.688Z,18.47
2018-04-28T22:44:19.075Z,23.90
2018-04-28T22:46:47.434Z,16.90
2018-04-28T22:49:15.991Z,18.57
2018-04-28T22:51:44.354Z,21.30
2018-04-28T22:54:12.784Z,19.73
2018-04-28T22:56:41.198Z,19.50
2018-04-28T22:59:09.600Z,20.50
2018-04-28T23:01:37.975Z,20.23
2018-04-28T23:04:06.346Z,20.93
2018-04-28T23:06:34.718Z,24.43
2018-04-28T23:09:03.151Z,24.07
2018-04-28T23:11:31.336Z,21.60
2018-04-28T23:13:59.750Z,29.13
2018-04-28T23:16:28.158Z,22.87
2018-04-28T23:18:56.531Z,27.17
2018-04-28T23:21:25.110Z,23.53
2018-04-28T23:23:53.250Z,23.60
2018-04-28T23:26:21.618Z,23.97
2018-04-28T23:28:49.986Z,22.57
2018-04-28T23:31:18.357Z,28.57
2018-04-28T23:33:46.783Z,24.77
2018-04-28T23:36:15.202Z,23.90
2018-04-28T23:38:43.576Z,22.37
2018-04-28T23:41:11.949Z,26.47
2018-04-28T23:43:40.319Z,22.87
2018-04-28T23:46:08.731Z,24.27
2018-04-28T23:48:37.110Z,24.63
2018-04-28T23:51:05.527Z,23.13
2018-04-28T23:53:33.908Z,22.90
2018-04-28T23:56:02.320Z,25.00
2018-04-28T23:58:30.749Z,26.27
